Impacts TAF Board
For situational awareness. Not to be used for flight planning purposes.
IDs:

KLAX - Los Angeles Intl, CA, US

Issued at 0150 UTC 23 Apr 2021
Updated at 0158 UTC 23 Apr 2021
Potential Impact None Slight Moderate High
Time<<23/14Z 23/15Z 23/16Z 23/17Z 23/18Z 23/19Z 23/20Z 23/21Z 23/22Z 23/23Z 24/00Z 24/01Z 24/02Z>>
Type PRVL PRVL PRVL PRVL PRVL PRVL PRVL PRVL PRVL PRVL PRVL PRVL PRVL
VIS >6 >6 >6 >6 >6 >6 >6 >6 >6 >6 >6 >6 >6
CIG 25 25 25 25 25 25 50 50 50 50 50 50 50
Cover OVC OVC OVC OVC OVC OVC BKN BKN BKN BKN BKN BKN BKN
FltCat MVFR MVFR MVFR MVFR MVFR MVFR VFR VFR VFR VFR VFR VFR VFR
WX -- -- -- -- -- -- -- -- -- -- -- -- --
WDir 180 180 180 180 180 180 250 250 250 250 250 250 250
WSpd 6 6 6 6 6 6 12 12 12 12 12 12 12
WGst -- -- -- -- -- -- -- -- -- -- -- -- --
Raw TAF
KLAX 230150Z 2302/2406 26012KT P6SM BKN018 BKN045
  FM230500 27006KT P6SM BKN015 BKN040
  FM231000 25006KT P6SM OVC012
  FM231300 18006KT P6SM OVC025
  FM232000 25012KT P6SM BKN050
  FM240300 26009KT P6SM OVC025


METAR Board
Radar Display
Forecast Discussion
For situational awareness. Not to be used for flight planning purposes.